KAC787 OKKK-OEJN
Flight info
| Callsign | KAC787 |
|---|---|
| Flight time | N/A |
| Altitude | 40000 |
| Route | KFR DEKOB P517 KSB B417 GAS G674 PMA B544 NOMDA |
| Aircraft | A339/H-SADE1E2E3GHIJ3J5M1P2RWXY/LB2D1 |
Departure
| Time | 2026-05-01 14:47 |
|---|---|
| Airport | Kuwait International Airport (OKKK) |
Arrival
| Time | N/A |
|---|---|
| Airport | King Abdulaziz International Airport (OEJN) |
| Time | Latitude | Longitude | Altitude | Speed | Heading |
|---|---|---|---|---|---|
| 2026-05-01 14:18 | 29.24601 | 47.96238 | 175 ft | 0 kts | 65° |
| 2026-05-01 14:34 | 29.24598 | 47.96229 | 175 ft | 4 kts | 63° |
| 2026-05-01 14:34 | 29.24585 | 47.96201 | 174 ft | 4 kts | 65° |
| 2026-05-01 14:35 | 29.24575 | 47.96176 | 173 ft | 2 kts | 77° |
| 2026-05-01 14:35 | 29.24571 | 47.96157 | 172 ft | 3 kts | 105° |
| 2026-05-01 14:35 | 29.24575 | 47.96142 | 172 ft | 2 kts | 123° |
| 2026-05-01 14:35 | 29.24581 | 47.96131 | 171 ft | 2 kts | 135° |
| 2026-05-01 14:36 | 29.24589 | 47.96121 | 171 ft | 2 kts | 143° |
| 2026-05-01 14:36 | 29.24602 | 47.96110 | 171 ft | 2 kts | 150° |
| 2026-05-01 14:36 | 29.24607 | 47.96107 | 172 ft | 0 kts | 152° |
| 2026-05-01 14:39 | 29.24603 | 47.96108 | 171 ft | 3 kts | 154° |
| 2026-05-01 14:39 | 29.24566 | 47.96129 | 171 ft | 8 kts | 154° |
| 2026-05-01 14:39 | 29.24506 | 47.96162 | 171 ft | 12 kts | 155° |
| 2026-05-01 14:39 | 29.24415 | 47.96207 | 171 ft | 15 kts | 156° |
| 2026-05-01 14:40 | 29.24312 | 47.96261 | 170 ft | 17 kts | 154° |
| 2026-05-01 14:40 | 29.24197 | 47.96325 | 170 ft | 19 kts | 155° |
| 2026-05-01 14:40 | 29.24069 | 47.96393 | 170 ft | 21 kts | 155° |
| 2026-05-01 14:40 | 29.23933 | 47.96466 | 170 ft | 22 kts | 154° |
| 2026-05-01 14:41 | 29.23792 | 47.96539 | 170 ft | 22 kts | 155° |
| 2026-05-01 14:41 | 29.23651 | 47.96616 | 172 ft | 23 kts | 154° |
| 2026-05-01 14:41 | 29.23506 | 47.96695 | 173 ft | 23 kts | 154° |
| 2026-05-01 14:41 | 29.23359 | 47.96780 | 173 ft | 24 kts | 157° |
| 2026-05-01 14:42 | 29.23200 | 47.96853 | 172 ft | 25 kts | 154° |
| 2026-05-01 14:42 | 29.23040 | 47.96940 | 173 ft | 26 kts | 156° |
| 2026-05-01 14:42 | 29.22874 | 47.97026 | 173 ft | 27 kts | 155° |
| 2026-05-01 14:42 | 29.22704 | 47.97119 | 172 ft | 28 kts | 154° |
| 2026-05-01 14:43 | 29.22526 | 47.97211 | 172 ft | 28 kts | 155° |
| 2026-05-01 14:43 | 29.22346 | 47.97307 | 171 ft | 29 kts | 156° |
| 2026-05-01 14:43 | 29.22163 | 47.97408 | 171 ft | 29 kts | 154° |
| 2026-05-01 14:43 | 29.21975 | 47.97508 | 170 ft | 30 kts | 155° |
| 2026-05-01 14:44 | 29.21785 | 47.97610 | 171 ft | 30 kts | 155° |
| 2026-05-01 14:44 | 29.21423 | 47.97800 | 173 ft | 6 kts | 155° |
| 2026-05-01 14:44 | 29.21395 | 47.97815 | 173 ft | 6 kts | 155° |
| 2026-05-01 14:45 | 29.21341 | 47.97844 | 174 ft | 10 kts | 155° |
| 2026-05-01 14:45 | 29.21239 | 47.97766 | 174 ft | 12 kts | 264° |
| 2026-05-01 14:45 | 29.21279 | 47.97682 | 173 ft | 13 kts | 304° |
| 2026-05-01 14:46 | 29.21343 | 47.97600 | 172 ft | 15 kts | 322° |
| 2026-05-01 14:46 | 29.22448 | 47.97007 | 172 ft | 166 kts | 335° |
| 2026-05-01 14:46 | 29.23597 | 47.96385 | 624 ft | 189 kts | 336° |
| 2026-05-01 14:47 | 29.24788 | 47.95755 | 1591 ft | 185 kts | 338° |
| 2026-05-01 14:47 | 29.25964 | 47.95168 | 2527 ft | 188 kts | 339° |
| 2026-05-01 14:47 | 29.27211 | 47.94551 | 3137 ft | 204 kts | 338° |
| 2026-05-01 14:48 | 29.30003 | 47.93084 | 3962 ft | 246 kts | 335° |
| 2026-05-01 14:48 | 29.31641 | 47.92196 | 4004 ft | 275 kts | 335° |
| 2026-05-01 14:48 | 29.34512 | 47.88887 | 4030 ft | 312 kts | 293° |
| 2026-05-01 14:49 | 29.34275 | 47.84258 | 5701 ft | 286 kts | 241° |
| 2026-05-01 14:49 | 29.31211 | 47.81782 | 7634 ft | 282 kts | 193° |
| 2026-05-01 14:50 | 29.28566 | 47.81665 | 8585 ft | 288 kts | 180° |
| 2026-05-01 14:50 | 29.23214 | 47.82145 | 10380 ft | 297 kts | 181° |
| 2026-05-01 14:51 | 29.21073 | 47.82275 | 10542 ft | 317 kts | 182° |
| 2026-05-01 14:51 | 29.16433 | 47.82477 | 11234 ft | 342 kts | 182° |
| 2026-05-01 14:52 | 29.11649 | 47.82683 | 12477 ft | 347 kts | 183° |
| 2026-05-01 14:52 | 29.09231 | 47.82786 | 13129 ft | 349 kts | 183° |
| 2026-05-01 14:52 | 29.04459 | 47.82988 | 14277 ft | 354 kts | 184° |
| 2026-05-01 14:53 | 29.01988 | 47.83091 | 14845 ft | 356 kts | 184° |
| 2026-05-01 14:53 | 28.99504 | 47.83196 | 15392 ft | 359 kts | 184° |
| 2026-05-01 14:53 | 28.97088 | 47.83298 | 15934 ft | 361 kts | 184° |
| 2026-05-01 14:53 | 28.94560 | 47.83404 | 16478 ft | 364 kts | 184° |
| 2026-05-01 14:54 | 28.92596 | 47.83487 | 16895 ft | 366 kts | 184° |
| 2026-05-01 14:54 | 28.90040 | 47.83595 | 17418 ft | 368 kts | 184° |
| 2026-05-01 14:54 | 28.87464 | 47.83703 | 17958 ft | 371 kts | 184° |
| 2026-05-01 14:54 | 28.84964 | 47.83809 | 18419 ft | 374 kts | 184° |
| 2026-05-01 14:55 | 28.82351 | 47.83919 | 18845 ft | 377 kts | 184° |
| 2026-05-01 14:55 | 28.79750 | 47.84028 | 19279 ft | 381 kts | 184° |
| 2026-05-01 14:55 | 28.77089 | 47.84140 | 19723 ft | 384 kts | 184° |
| 2026-05-01 14:55 | 28.74407 | 47.84253 | 20169 ft | 388 kts | 184° |
| 2026-05-01 14:56 | 28.71703 | 47.84368 | 20615 ft | 391 kts | 184° |
| 2026-05-01 14:56 | 28.68967 | 47.84483 | 21060 ft | 395 kts | 184° |
| 2026-05-01 14:56 | 28.66206 | 47.84600 | 21522 ft | 399 kts | 184° |
| 2026-05-01 14:56 | 28.63418 | 47.84719 | 21998 ft | 402 kts | 184° |
| 2026-05-01 14:57 | 28.60613 | 47.84838 | 22455 ft | 406 kts | 184° |
| 2026-05-01 14:57 | 28.54944 | 47.84786 | 23374 ft | 404 kts | 196° |
| 2026-05-01 14:57 | 28.52283 | 47.83834 | 23839 ft | 396 kts | 211° |
| 2026-05-01 14:58 | 28.49982 | 47.82189 | 24318 ft | 388 kts | 224° |
| 2026-05-01 14:58 | 28.48062 | 47.80058 | 24786 ft | 386 kts | 230° |
| 2026-05-01 14:58 | 28.46188 | 47.77870 | 25244 ft | 388 kts | 230° |
| 2026-05-01 14:58 | 28.44286 | 47.75680 | 25710 ft | 390 kts | 230° |
| 2026-05-01 14:59 | 28.42392 | 47.73520 | 26155 ft | 392 kts | 229° |
| 2026-05-01 14:59 | 28.40428 | 47.71291 | 26601 ft | 394 kts | 229° |
| 2026-05-01 14:59 | 28.38509 | 47.69117 | 27048 ft | 396 kts | 229° |
| 2026-05-01 14:59 | 28.36551 | 47.66900 | 27488 ft | 398 kts | 229° |
| 2026-05-01 15:00 | 28.32606 | 47.62438 | 28320 ft | 403 kts | 229° |
| 2026-05-01 15:00 | 28.30611 | 47.60183 | 28753 ft | 404 kts | 229° |
| 2026-05-01 15:00 | 28.28618 | 47.57930 | 29158 ft | 406 kts | 229° |
| 2026-05-01 15:01 | 28.26610 | 47.55662 | 29555 ft | 408 kts | 229° |
| 2026-05-01 15:01 | 28.24590 | 47.53382 | 29956 ft | 411 kts | 229° |
| 2026-05-01 15:01 | 28.22635 | 47.51024 | 30316 ft | 409 kts | 234° |
| 2026-05-01 15:01 | 28.21069 | 47.48367 | 30717 ft | 406 kts | 244° |
| 2026-05-01 15:02 | 28.19937 | 47.45442 | 31109 ft | 405 kts | 252° |
| 2026-05-01 15:02 | 28.19657 | 47.44412 | 31238 ft | 405 kts | 255° |
| 2026-05-01 15:02 | 28.18787 | 47.39200 | 31859 ft | 406 kts | 260° |
| 2026-05-01 15:02 | 28.18290 | 47.36040 | 32237 ft | 407 kts | 259° |
| 2026-05-01 15:03 | 28.17783 | 47.32883 | 32598 ft | 408 kts | 259° |
| 2026-05-01 15:03 | 28.17269 | 47.29714 | 32884 ft | 409 kts | 259° |
| 2026-05-01 15:03 | 28.16757 | 47.26579 | 33151 ft | 409 kts | 259° |
| 2026-05-01 15:03 | 28.16238 | 47.23398 | 33382 ft | 410 kts | 259° |
| 2026-05-01 15:04 | 28.15720 | 47.20220 | 33638 ft | 409 kts | 259° |
| 2026-05-01 15:04 | 28.15203 | 47.17058 | 33937 ft | 407 kts | 259° |
| 2026-05-01 15:04 | 28.14688 | 47.13908 | 34176 ft | 406 kts | 259° |
| 2026-05-01 15:04 | 28.14173 | 47.10760 | 34389 ft | 406 kts | 259° |
| 2026-05-01 15:05 | 28.13657 | 47.07620 | 34598 ft | 405 kts | 259° |
| 2026-05-01 15:05 | 28.13142 | 47.04483 | 34817 ft | 405 kts | 259° |
| 2026-05-01 15:05 | 28.12628 | 47.01357 | 35027 ft | 404 kts | 258° |
| 2026-05-01 15:05 | 28.12113 | 46.98232 | 35243 ft | 403 kts | 258° |
| 2026-05-01 15:06 | 28.11765 | 46.96120 | 35390 ft | 403 kts | 258° |
| 2026-05-01 15:06 | 28.11251 | 46.93008 | 35595 ft | 402 kts | 258° |
| 2026-05-01 15:06 | 28.10742 | 46.89932 | 35798 ft | 402 kts | 258° |
| 2026-05-01 15:06 | 28.10221 | 46.86786 | 35993 ft | 401 kts | 258° |
| 2026-05-01 15:07 | 28.09708 | 46.83684 | 36220 ft | 400 kts | 258° |
| 2026-05-01 15:07 | 28.09195 | 46.80587 | 36436 ft | 400 kts | 258° |
| 2026-05-01 15:07 | 28.08684 | 46.77502 | 36645 ft | 399 kts | 258° |
| 2026-05-01 15:07 | 28.08178 | 46.74453 | 36852 ft | 398 kts | 258° |
| 2026-05-01 15:08 | 28.07666 | 46.71377 | 37050 ft | 397 kts | 257° |
| 2026-05-01 15:08 | 28.07154 | 46.68303 | 37259 ft | 397 kts | 257° |
| 2026-05-01 15:08 | 28.06642 | 46.65233 | 37465 ft | 396 kts | 257° |
| 2026-05-01 15:08 | 28.06130 | 46.62171 | 37666 ft | 396 kts | 257° |
| 2026-05-01 15:09 | 28.05620 | 46.59113 | 37863 ft | 395 kts | 257° |
| 2026-05-01 15:09 | 28.05110 | 46.56058 | 38074 ft | 394 kts | 257° |
| 2026-05-01 15:09 | 28.04599 | 46.53004 | 38270 ft | 394 kts | 257° |
| 2026-05-01 15:09 | 28.04090 | 46.49965 | 38473 ft | 393 kts | 257° |
| 2026-05-01 15:10 | 28.03581 | 46.46928 | 38649 ft | 392 kts | 257° |
| 2026-05-01 15:10 | 28.02562 | 46.40868 | 38955 ft | 392 kts | 257° |
| 2026-05-01 15:10 | 28.02053 | 46.37846 | 39079 ft | 391 kts | 257° |
| 2026-05-01 15:11 | 28.01543 | 46.34820 | 39223 ft | 391 kts | 257° |
| 2026-05-01 15:11 | 28.00521 | 46.28777 | 39501 ft | 391 kts | 257° |
| 2026-05-01 15:11 | 28.00007 | 46.25746 | 39628 ft | 391 kts | 257° |
| 2026-05-01 15:12 | 27.99502 | 46.22765 | 39758 ft | 390 kts | 257° |
| 2026-05-01 15:12 | 27.98477 | 46.16730 | 39911 ft | 390 kts | 257° |
| 2026-05-01 15:12 | 27.97970 | 46.13712 | 39909 ft | 389 kts | 257° |
| 2026-05-01 15:14 | 27.95438 | 45.98681 | 39910 ft | 389 kts | 257° |
| 2026-05-01 15:14 | 27.93907 | 45.89667 | 39905 ft | 389 kts | 257° |
| 2026-05-01 15:15 | 27.91875 | 45.77759 | 39907 ft | 389 kts | 257° |
| 2026-05-01 15:16 | 27.89817 | 45.65757 | 39905 ft | 388 kts | 257° |
| 2026-05-01 15:18 | 27.84498 | 45.52125 | 39898 ft | 373 kts | 233° |
| 2026-05-01 15:19 | 27.77086 | 45.44187 | 39895 ft | 373 kts | 227° |
| 2026-05-01 15:19 | 27.71406 | 45.38284 | 39893 ft | 370 kts | 227° |
| 2026-05-01 15:20 | 27.65697 | 45.32369 | 39881 ft | 371 kts | 227° |
| 2026-05-01 15:21 | 27.61884 | 45.28424 | 39880 ft | 371 kts | 227° |
| 2026-05-01 15:21 | 27.58071 | 45.24482 | 39883 ft | 371 kts | 227° |
| 2026-05-01 15:22 | 27.52616 | 45.18396 | 39897 ft | 369 kts | 230° |
| 2026-05-01 15:22 | 27.49044 | 45.14229 | 39895 ft | 369 kts | 230° |
| 2026-05-01 15:23 | 27.45462 | 45.10069 | 39870 ft | 370 kts | 230° |
| 2026-05-01 15:23 | 27.41884 | 45.05917 | 39869 ft | 370 kts | 230° |
| 2026-05-01 15:24 | 27.38318 | 45.01784 | 39887 ft | 370 kts | 230° |
| 2026-05-01 15:24 | 27.34730 | 44.97628 | 39873 ft | 370 kts | 230° |
| 2026-05-01 15:25 | 27.31134 | 44.93467 | 39878 ft | 371 kts | 230° |
| 2026-05-01 15:25 | 27.27559 | 44.89335 | 39879 ft | 371 kts | 230° |
| 2026-05-01 15:26 | 27.23954 | 44.85172 | 39876 ft | 371 kts | 230° |
| 2026-05-01 15:26 | 27.20348 | 44.81012 | 39870 ft | 371 kts | 230° |
| 2026-05-01 15:27 | 27.16741 | 44.76857 | 39876 ft | 372 kts | 230° |
| 2026-05-01 15:28 | 27.11330 | 44.70628 | 39874 ft | 372 kts | 230° |
| 2026-05-01 15:28 | 27.07735 | 44.66496 | 39876 ft | 371 kts | 230° |
| 2026-05-01 15:29 | 27.02313 | 44.60274 | 39869 ft | 371 kts | 230° |
| 2026-05-01 15:30 | 26.95083 | 44.51991 | 39866 ft | 371 kts | 230° |
| 2026-05-01 15:31 | 26.84262 | 44.39633 | 39848 ft | 370 kts | 230° |
| 2026-05-01 15:32 | 26.77041 | 44.31405 | 39843 ft | 370 kts | 230° |
| 2026-05-01 15:34 | 26.66257 | 44.19148 | 39849 ft | 365 kts | 230° |